Latest Weather Observations for Pirlangimpi

IDD60801

Issued at 11:31 am CST Wednesday 27 May 2015 (issued every 30 minutes, with the page automatically refreshed every 10 minutes)

About weather observations | Map of weather stations | Latest weather observations for NT | Other Formats
Station Details ID: 014142 Name: PIRLANGIMPI AIRPORT Lat: -11.40 Lon: 130.42 Height: 18.3 m
Data from the previous 72 hours. | See also: Recent months at Pirlangimpi
Date/Time
CST
Temp
°C
App
Temp
°C
Dew
Point
Rel
Hum
%
Delta-T
°C
Wind Press
QNH
hPa
Press
MSL
hPa
Rain
since 9 am
mm
Dir
 
Spd
km/h
Gust
km/h
Spd
kts
Gust
kts
27/11:30am 31.6 32.7 21.2 54 7.0 E 17 28 9 15 1013.6 1013.5 0.0
27/11:00am 31.1 32.2 21.3 56 6.6 E 17 26 9 14 1014.0 1013.9 0.0
27/10:30am 30.3 30.9 21.1 58 6.1 E 19 30 10 16 1014.4 1014.3 0.0
27/10:00am 29.6 31.6 22.3 65 5.0 E 15 24 8 13 1014.5 1014.4 0.0
27/09:30am 28.9 32.2 23.8 74 3.5 ESE 13 20 7 11 1014.6 1014.5 0.0
27/09:00am 27.7 32.1 24.5 83 2.2 ESE 9 15 5 8 1014.4 1014.3 0.0
27/08:30am 26.5 31.1 24.2 87 1.6 SE 7 11 4 6 1014.0 1013.9 0.0
27/08:00am 25.7 30.3 24.1 91 1.1 ESE 7 11 4 6 1013.9 1013.8 0.0
27/07:30am 24.7 29.1 23.5 93 0.8 ESE 6 7 3 4 1013.8 1013.7 0.0
27/07:00am 23.9 28.2 22.7 93 0.8 ESE 4 6 2 3 1013.3 1013.2 0.0
27/06:30am 23.5 28.2 21.9 91 1.1 CALM 0 0 0 0 1012.9 1012.8 0.0
27/06:00am 23.7 28.0 22.0 90 1.1 SE 2 2 1 1 1012.7 1012.6 0.0
27/05:30am 24.2 28.8 22.5 90 1.1 SE 2 6 1 3 1012.4 1012.3 0.0
27/05:00am 24.4 28.4 22.7 90 1.1 ESE 6 9 3 5 1012.2 1012.1 0.0
27/04:30am 24.2 28.1 22.6 91 1.1 SE 6 9 3 5 1012.0 1011.9 0.0
27/04:00am 24.1 28.1 22.7 92 0.9 SE 6 9 3 5 1012.2 1012.1 0.0
27/03:30am 24.1 27.9 22.7 92 0.9 SE 7 11 4 6 1012.4 1012.3 0.0
27/03:00am 24.2 28.2 22.8 92 0.9 SE 6 9 3 5 1012.6 1012.5 0.0
27/02:30am 24.6 28.7 23.0 91 1.1 SE 6 7 3 4 1013.1 1013.0 0.0
27/02:00am 25.0 29.4 23.4 91 1.1 SE 6 9 3 5 1013.5 1013.4 0.0
27/01:30am 25.0 29.2 23.2 90 1.2 SE 6 7 3 4 1013.7 1013.6 0.0
27/01:00am 25.4 30.2 23.5 89 1.3 ESE 4 6 2 3 1013.8 1013.7 0.0
27/12:30am 25.8 30.5 24.0 90 1.2 E 6 13 3 7 1013.9 1013.8 0.0
27/12:00am 25.3 29.7 23.4 89 1.3 ENE 6 9 3 5 1014.2 1014.1 0.0
 
Date/Time
CST
Temp
°C
App
Temp
°C
Dew
Point
Rel
Hum
%
Delta-T
°C
Wind Press
QNH
hPa
Press
MSL
hPa
Rain
since 9 am
mm
Dir
 
Spd
km/h
Gust
km/h
Spd
kts
Gust
kts
26/11:30pm 25.3 30.3 23.2 88 1.4 NE 2 4 1 2 1014.5 1014.4 0.0
26/11:00pm 25.5 30.0 23.0 86 1.7 ENE 4 7 2 4 1014.5 1014.4 0.0
26/10:30pm 25.8 29.8 23.1 85 1.8 ENE 7 13 4 7 1014.4 1014.3 0.0
26/10:00pm 25.8 29.3 22.9 84 2.0 NE 9 17 5 9 1014.4 1014.3 0.0
26/09:30pm 25.9 30.0 23.0 84 2.0 NE 6 7 3 4 1014.5 1014.4 0.0
26/09:00pm 26.2 30.8 23.1 83 2.1 NE 4 7 2 4 1014.4 1014.3 0.0
26/08:30pm 26.3 30.4 23.2 83 2.1 NE 7 11 4 6 1014.2 1014.1 0.0
26/08:00pm 26.1 30.0 22.6 81 2.4 NE 6 9 3 5 1014.0 1013.9 0.0
26/07:30pm 26.3 30.5 22.4 79 2.6 NE 4 7 2 4 1013.7 1013.6 0.0
26/07:00pm 27.0 31.0 22.0 74 3.4 NE 4 6 2 3 1013.5 1013.4 0.0
26/06:30pm 27.7 31.7 22.0 71 3.8 NNE 4 7 2 4 1013.2 1013.1 0.0
26/06:00pm 28.6 32.1 21.9 67 4.5 NE 6 11 3 6 1012.8 1012.7 0.0
26/05:30pm 29.4 32.5 21.4 62 5.4 NNE 7 15 4 8 1012.5 1012.4 0.0
26/05:00pm 31.0 33.6 21.2 56 6.6 NE 9 15 5 8 1012.4 1012.3 0.0
26/04:30pm 33.0 35.4 21.5 50 7.8 ENE 11 19 6 10 1012.1 1012.0 0.0
26/04:00pm 32.8 33.5 19.7 46 8.7 ESE 15 22 8 12 1012.0 1011.9 0.0
26/03:30pm 34.1 35.1 19.4 42 9.7 E 13 22 7 12 1012.1 1012.0 0.0
26/03:00pm 34.7 36.1 20.3 43 9.6 ENE 13 24 7 13 1012.4 1012.3 0.0
26/02:30pm 34.2 35.0 20.6 45 9.1 E 17 24 9 13 1012.6 1012.5 0.0
26/02:00pm 33.3 33.8 20.1 45 8.8 E 17 28 9 15 1012.9 1012.8 0.0
26/01:30pm 34.2 35.5 20.9 45 9.0 E 15 20 8 11 1013.1 1013.0 0.0
26/01:00pm 33.4 34.1 20.5 46 8.6 E 17 30 9 16 1013.7 1013.6 0.0
26/12:30pm 33.9 36.0 21.7 49 8.3 E 13 22 7 12 1014.1 1014.0 0.0
26/12:00pm 32.4 35.1 22.2 55 7.0 SE 11 17 6 9 1014.6 1014.5 0.0
26/11:30am 32.2 34.5 22.0 55 6.9 E 13 24 7 13 1015.2 1015.1 0.0
26/11:00am 31.2 32.8 21.4 56 6.6 ESE 15 24 8 13 1015.6 1015.5 0.0
26/10:30am 30.6 33.9 21.9 59 5.9 SE 7 13 4 7 1015.8 1015.7 0.0
26/10:00am 29.1 33.4 23.3 71 4.0 S 6 9 3 5 1016.3 1016.2 0.0
26/09:30am 27.5 32.1 23.1 77 3.0 S 4 6 2 3 1016.2 1016.1 0.0
26/09:00am 26.1 30.3 22.4 80 2.5 S 4 6 2 3 1016.2 1016.1 0.0
26/08:30am 24.9 29.0 21.6 82 2.2 S 2 4 1 2 1016.0 1015.9 0.0
26/08:00am 24.0 28.1 21.5 86 1.7 SSE 2 4 1 2 1015.8 1015.7 0.0
26/07:30am 22.8 27.1 21.1 90 1.1 CALM 0 0 0 0 1015.6 1015.5 0.0
26/07:00am 22.6 26.8 20.9 90 1.1 CALM 0 0 0 0 1015.5 1015.4 0.0
26/06:30am 22.6 26.8 20.9 90 1.1 CALM 0 0 0 0 1015.0 1014.9 0.0
26/06:00am 22.5 26.1 20.6 89 1.2 ESE 2 6 1 3 1014.8 1014.7 0.0
26/05:30am 23.0 26.5 21.1 89 1.2 SE 4 6 2 3 1014.7 1014.6 0.0
26/05:00am 22.8 26.3 21.1 90 1.1 ESE 4 6 2 3 1014.4 1014.3 0.0
26/04:30am 22.8 26.0 21.3 91 1.0 SSE 6 9 3 5 1014.4 1014.3 0.0
26/04:00am 22.8 26.1 21.4 92 0.9 SE 6 6 3 3 1014.3 1014.2 0.0
26/03:30am 22.1 25.1 20.9 93 0.8 SSE 6 9 3 5 1014.3 1014.2 0.0
26/03:00am 22.0 26.0 20.5 91 1.0 CALM 0 0 0 0 1014.1 1014.0 0.0
26/02:30am 22.2 25.9 20.7 91 1.0 NE 2 4 1 2 1014.4 1014.3 0.0
26/02:00am 22.4 26.6 20.9 91 1.0 CALM 0 0 0 0 1014.6 1014.5 0.0
26/01:30am 22.6 26.9 21.1 91 1.0 CALM 0 0 0 0 1014.8 1014.7 0.0
26/01:00am 22.8 27.2 21.3 91 1.0 CALM 0 0 0 0 1015.2 1015.1 0.0
26/12:30am 23.2 27.7 21.5 90 1.1 CALM 0 0 0 0 1015.3 1015.2 0.0
26/12:00am 23.3 27.5 21.7 91 1.1 NE 2 2 1 1 1015.5 1015.4 0.0
 
Date/Time
CST
Temp
°C
App
Temp
°C
Dew
Point
Rel
Hum
%
Delta-T
°C
Wind Press
QNH
hPa
Press
MSL
hPa
Rain
since 9 am
mm
Dir
 
Spd
km/h
Gust
km/h
Spd
kts
Gust
kts
25/11:30pm 23.5 27.8 21.9 91 1.1 NE 2 4 1 2 1015.8 1015.7 0.0
25/11:00pm 23.7 28.1 22.1 91 1.1 NE 2 4 1 2 1016.0 1015.9 0.0
25/10:30pm 23.9 28.6 22.0 89 1.3 CALM 0 0 0 0 1016.1 1016.0 0.0
25/10:00pm 24.1 28.4 22.0 88 1.4 NE 2 4 1 2 1016.1 1016.0 0.0
25/09:30pm 24.3 28.4 22.2 88 1.4 NE 4 6 2 3 1015.9 1015.8 0.0
25/09:00pm 24.5 28.8 22.0 86 1.7 NE 2 4 1 2 1015.7 1015.6 0.0
25/08:30pm 24.7 28.6 21.8 84 1.9 E 4 6 2 3 1015.4 1015.3 0.0
25/08:00pm 25.0 29.6 21.7 82 2.2 CALM 0 0 0 0 1015.0 1014.9 0.0
25/07:30pm 25.5 30.0 21.6 79 2.6 CALM 0 0 0 0 1014.6 1014.5 0.0
25/07:00pm 26.2 30.6 21.4 75 3.2 CALM 0 0 0 0 1014.2 1014.1 0.0
25/06:30pm 27.3 30.9 21.3 69 4.0 NE 4 7 2 4 1013.9 1013.8 0.0
25/06:00pm 28.7 31.8 21.5 65 4.8 ENE 7 15 4 8 1013.6 1013.5 0.0
25/05:30pm 29.2 32.6 21.7 64 5.0 NNE 6 11 3 6 1013.2 1013.1 0.0
25/05:00pm 30.1 33.7 21.2 59 6.0 N 4 9 2 5 1012.9 1012.8 0.0
25/04:30pm 32.5 35.1 20.4 49 8.1 SSE 7 13 4 7 1012.8 1012.7 0.0
25/04:00pm 32.5 34.2 19.4 46 8.6 SSW 9 15 5 8 1012.8 1012.7 0.0
25/03:30pm 33.3 35.1 18.3 41 9.7 S 6 13 3 7 1012.9 1012.8 0.0
25/03:00pm 33.6 34.1 16.5 36 10.8 E 9 17 5 9 1013.0 1012.9 0.0
25/02:30pm 33.2 33.5 16.1 35 10.8 ESE 9 17 5 9 1013.4 1013.3 0.0
25/02:00pm 33.4 33.6 16.7 36 10.6 SE 11 19 6 10 1013.7 1013.6 0.0
25/01:30pm 33.7 34.7 17.8 38 10.3 ENE 9 17 5 9 1014.1 1014.0 0.0
25/01:00pm 33.1 33.5 17.3 39 10.1 ESE 11 19 6 10 1014.4 1014.3 0.0
25/12:30pm 32.2 33.3 18.8 45 8.7 ESE 11 17 6 9 1014.8 1014.7 0.0
25/12:00pm 30.7 31.5 18.1 47 8.1 E 11 20 6 11 1015.1 1015.0 0.0
25/11:30am 30.4 32.1 19.4 51 7.2 E 9 19 5 10 1015.7 1015.6 0.0
25/11:00am 28.9 30.2 19.2 55 6.3 ESE 11 20 6 11 1015.8 1015.7 0.0
25/10:30am 29.2 30.7 19.8 57 6.1 ESE 11 19 6 10 1016.2 1016.1 0.0
25/10:00am 28.1 30.2 19.3 58 5.7 SSE 7 11 4 6 1016.4 1016.3 0.0
25/09:30am 26.9 29.4 19.8 65 4.6 SSE 6 13 3 7 1016.5 1016.4 0.0
25/09:00am 24.1 27.0 19.0 73 3.2 SE 2 4 1 2 1016.3 1016.2 0.0
25/08:30am 22.8 25.0 18.3 76 2.8 SE 4 6 2 3 1016.0 1015.9 0.0
25/08:00am 19.1 20.6 15.8 81 2.0 E 2 4 1 2 1015.9 1015.8 0.0
25/07:30am 19.0 20.6 15.9 82 1.8 ESE 2 2 1 1 1015.6 1015.5 0.0
25/07:00am 18.8 20.2 15.3 80 2.1 SE 2 4 1 2 1015.3 1015.2 0.0
25/06:30am 18.8 19.7 15.1 79 2.2 E 4 4 2 2 1015.0 1014.9 0.0
25/06:00am 19.1 20.0 15.0 77 2.4 SE 4 6 2 3 1014.7 1014.6 0.0
25/05:30am 20.0 21.0 15.4 75 2.7 SE 4 6 2 3 1014.6 1014.5 0.0
25/05:00am 19.1 19.6 15.0 77 2.4 ESE 6 7 3 4 1014.5 1014.4 0.0
25/04:30am 20.3 21.4 15.5 74 2.8 ESE 4 6 2 3 1014.4 1014.3 0.0
25/04:00am 20.5 21.6 15.5 73 3.0 SE 4 6 2 3 1014.3 1014.2 0.0
25/03:30am 20.7 22.1 16.5 77 2.5 SSE 4 6 2 3 1014.6 1014.5 0.0
25/03:00am 21.0 22.3 17.2 79 2.3 SSE 6 9 3 5 1014.9 1014.8 0.0
25/02:30am 21.1 22.6 17.7 81 2.1 SSE 6 7 3 4 1015.1 1015.0 0.0
25/02:00am 20.8 21.9 16.6 77 2.5 SSE 6 7 3 4 1015.1 1015.0 0.0
25/01:30am 21.7 23.1 17.3 76 2.7 NE 6 9 3 5 1015.1 1015.0 0.0
25/01:00am 21.5 22.6 17.1 76 2.7 NE 7 9 4 5 1015.2 1015.1 0.0
25/12:30am 22.0 22.6 16.9 73 3.1 NE 9 15 5 8 1015.3 1015.2 0.0
25/12:00am 20.8 20.9 16.6 77 2.5 NE 11 17 6 9 1015.2 1015.1 0.0
 
Date/Time
CST
Temp
°C
App
Temp
°C
Dew
Point
Rel
Hum
%
Delta-T
°C
Wind Press
QNH
hPa
Press
MSL
hPa
Rain
since 9 am
mm
Dir
 
Spd
km/h
Gust
km/h
Spd
kts
Gust
kts
24/11:30pm 18.9 19.7 15.8 82 1.8 NE 6 7 3 4 1015.5 1015.4 0.0
24/11:00pm 18.6 19.7 15.7 83 1.7 NE 4 7 2 4 1015.6 1015.5 0.0
24/10:30pm 18.7 20.5 15.6 82 1.8 CALM 0 0 0 0 1015.6 1015.5 0.0
24/10:00pm 19.1 20.9 15.4 79 2.2 CALM 0 0 0 0 1015.5 1015.4 0.0
24/09:30pm 19.7 21.7 16.0 79 2.2 CALM 0 0 0 0 1015.3 1015.2 0.0
24/09:00pm 20.4 22.6 16.6 79 2.3 CALM 0 0 0 0 1015.0 1014.9 0.0
24/08:30pm 21.2 23.3 17.2 78 2.4 ENE 2 4 1 2 1014.7 1014.6 0.0
24/08:00pm 21.7 23.5 17.5 77 2.6 NE 4 6 2 3 1014.3 1014.2 0.0
24/07:30pm 22.3 24.2 16.8 71 3.4 ENE 2 2 1 1 1013.9 1013.8 0.0
24/07:00pm 22.9 24.8 16.7 68 3.8 NE 2 4 1 2 1013.6 1013.5 0.0
24/06:30pm 24.3 26.2 16.6 62 4.7 NE 2 4 1 2 1013.3 1013.2 0.0
24/06:00pm 26.6 28.2 16.8 55 6.1 NNE 4 6 2 3 1013.0 1012.9 0.0
24/05:30pm 28.3 28.8 15.6 46 7.8 NE 7 11 4 6 1012.7 1012.6 0.0
24/05:00pm 30.9 31.5 15.7 39 9.4 NE 7 13 4 7 1012.4 1012.3 0.0
24/04:30pm 31.5 31.8 15.9 39 9.7 NE 9 19 5 10 1012.2 1012.1 0.0
24/04:00pm 32.1 32.4 15.1 35 10.5 NE 7 17 4 9 1012.1 1012.0 0.0
24/03:30pm 32.4 31.6 14.1 33 11.1 ESE 11 17 6 9 1012.2 1012.1 0.0
24/03:00pm 33.4 33.1 14.5 32 11.6 E 9 15 5 8 1012.2 1012.1 0.0
24/02:30pm 32.8 31.4 13.4 30 11.7 E 13 19 7 10 1012.3 1012.2 0.0
24/02:00pm 32.8 32.4 16.2 37 10.4 E 13 20 7 11 1012.5 1012.4 0.0
24/01:30pm 31.9 32.6 17.0 41 9.5 ESE 9 17 5 9 1012.9 1012.8 0.0
24/01:00pm 32.0 33.5 18.9 45 8.5 E 9 19 5 10 1013.3 1013.2 0.0
24/12:30pm 31.4 32.3 18.4 46 8.4 E 11 17 6 9 1013.6 1013.5 0.0
24/12:00pm 30.3 31.1 18.1 48 7.8 ESE 11 17 6 9 1014.1 1014.0 0.0

Other Formats:

Comma delimited format used in spreadsheet applications
http://www.bom.gov.au/fwo/IDD60801/IDD60801.94119.axf

JavaScript Object Notation format (JSON) in row-major order
http://www.bom.gov.au/fwo/IDD60801/IDD60801.94119.json